Time;durP1;ratioP1;P1;durP2;ratioP2;P2;SDS_P1;SDS_P2;PMS_P1;PMS_P2;Temp;Humidity;BMP_temperature;BMP_pressure;BME280_temperature;BME280_humidity;BME280_pressure;Samples;Min_cycle;Max_cycle;Signal;HPM_P1;HPM_P2
2023/08/28 00:00:16;;;;;;;1.55;1.10;;;13.80;99.90;;;;;;5015631;28;20288;-85
2023/08/28 00:02:43;;;;;;;1.52;1.20;;;13.80;99.90;;;;;;5015531;28;20259;-85
2023/08/28 00:05:09;;;;;;;2.20;1.20;;;13.70;99.90;;;;;;4998110;28;20183;-87
2023/08/28 00:07:36;;;;;;;2.67;1.13;;;13.80;99.90;;;;;;5015496;28;20230;-87
2023/08/28 00:10:02;;;;;;;2.33;1.15;;;13.70;99.90;;;;;;4997879;28;20621;-87
2023/08/28 00:12:28;;;;;;;1.95;1.02;;;13.70;99.90;;;;;;4997974;28;20245;-85
2023/08/28 00:14:56;;;;;;;2.35;1.10;;;13.70;99.90;;;;;;5015728;28;20210;-85
2023/08/28 00:17:22;;;;;;;3.50;1.30;;;13.60;99.90;;;;;;5015437;28;20176;-86
2023/08/28 00:19:48;;;;;;;8.02;1.42;;;13.60;99.90;;;;;;4997593;28;20179;-85
2023/08/28 00:22:13;;;;;;;2.60;1.15;;;13.60;99.90;;;;;;4997684;28;20179;-87
2023/08/28 00:24:39;;;;;;;3.13;1.33;;;13.50;99.90;;;;;;5015352;28;20202;-87
2023/08/28 00:27:05;;;;;;;6.40;1.92;;;13.60;99.90;;;;;;4997771;28;20191;-87
2023/08/28 00:29:30;;;;;;;2.38;1.48;;;13.50;99.90;;;;;;4997581;28;20194;-86
2023/08/28 00:31:56;;;;;;;2.75;1.38;;;13.50;99.90;;;;;;5015107;28;20168;-87
2023/08/28 00:34:22;;;;;;;3.33;1.50;;;13.50;99.90;;;;;;4997661;28;20302;-85
2023/08/28 00:36:48;;;;;;;3.92;1.42;;;13.50;99.90;;;;;;4997454;28;20178;-86
2023/08/28 00:39:14;;;;;;;4.20;1.63;;;13.40;99.90;;;;;;4997669;28;20230;-86
2023/08/28 00:41:40;;;;;;;2.72;1.60;;;13.40;99.90;;;;;;4997046;28;20230;-85
2023/08/28 00:44:06;;;;;;;3.22;1.50;;;13.40;99.90;;;;;;4997033;28;20186;-85
2023/08/28 00:46:32;;;;;;;4.95;1.63;;;13.40;99.90;;;;;;4997251;28;20175;-86
2023/08/28 00:48:59;;;;;;;4.10;1.75;;;13.40;99.90;;;;;;5014960;28;20178;-87
2023/08/28 00:51:25;;;;;;;3.92;1.65;;;13.40;99.90;;;;;;4997565;28;20179;-91
2023/08/28 00:53:51;;;;;;;2.45;1.65;;;13.40;99.90;;;;;;4997493;28;20183;-90
2023/08/28 00:56:17;;;;;;;3.28;1.70;;;13.40;99.90;;;;;;4996998;28;20185;-89
2023/08/28 00:58:42;;;;;;;3.15;2.00;;;13.40;99.90;;;;;;4997214;28;20206;-93
2023/08/28 01:01:08;;;;;;;3.28;1.80;;;13.40;99.90;;;;;;4997756;28;20261;-92
2023/08/28 01:03:34;;;;;;;2.22;1.70;;;13.40;99.90;;;;;;5014673;28;20175;-86
2023/08/28 01:06:28;;;;;;;2.28;1.90;;;13.40;99.90;;;;;;4997582;28;20194;-90
2023/08/28 01:09:13;;;;;;;4.60;1.83;;;13.30;99.90;;;;;;4997685;28;20171;-91
2023/08/28 01:12:06;;;;;;;2.03;1.80;;;13.20;99.90;;;;;;5015050;28;20594;-91
2023/08/28 01:14:39;;;;;;;3.17;2.00;;;13.20;99.90;;;;;;4997622;28;20175;-93
2023/08/28 01:17:07;;;;;;;2.72;1.92;;;13.20;99.90;;;;;;4997847;28;20262;-88
2023/08/28 01:19:41;;;;;;;4.22;2.30;;;13.20;99.90;;;;;;4997355;28;20609;-91
2023/08/28 01:22:32;;;;;;;4.18;2.22;;;13.20;99.90;;;;;;4997611;28;20214;-93
2023/08/28 01:25:10;;;;;;;4.88;1.63;;;13.20;99.90;;;;;;4997568;28;20179;-91
2023/08/28 01:27:47;;;;;;;5.43;2.40;;;13.30;99.90;;;;;;5014987;28;20159;-90
2023/08/28 01:30:16;;;;;;;5.30;2.30;;;13.20;99.90;;;;;;5014980;28;20238;-95
2023/08/28 01:32:45;;;;;;;2.95;2.00;;;13.20;99.90;;;;;;4997501;28;20521;-90
2023/08/28 01:35:26;;;;;;;5.95;2.42;;;13.20;99.90;;;;;;4997058;28;20684;-93
2023/08/28 01:37:58;;;;;;;3.47;2.58;;;13.20;99.90;;;;;;5014625;28;20252;-87
2023/08/28 01:40:30;;;;;;;5.15;2.88;;;13.20;99.90;;;;;;4996750;28;20207;-94
2023/08/28 01:42:57;;;;;;;4.28;2.50;;;13.20;99.90;;;;;;4996497;28;20266;-94
2023/08/28 01:45:25;;;;;;;4.55;2.47;;;13.20;99.90;;;;;;5014654;28;20241;-89
2023/08/28 01:47:53;;;;;;;2.85;2.55;;;13.20;99.90;;;;;;5015228;28;20179;-94
2023/08/28 01:50:18;;;;;;;4.00;2.80;;;13.20;99.90;;;;;;4997357;28;20171;-89
2023/08/28 01:52:44;;;;;;;5.10;2.53;;;13.20;99.90;;;;;;4997552;28;20560;-91
2023/08/28 01:55:10;;;;;;;4.85;2.55;;;13.20;99.90;;;;;;4997336;28;20516;-94
2023/08/28 02:00:07;;;;;;;6.13;2.83;;;13.20;99.90;;;;;;5011417;28;20227;-84
2023/08/28 02:02:33;;;;;;;4.53;2.90;;;13.20;99.90;;;;;;4996769;28;20183;-86
2023/08/28 02:04:58;;;;;;;5.57;2.67;;;13.20;99.90;;;;;;5014411;28;20187;-86
2023/08/28 02:07:24;;;;;;;3.40;2.60;;;13.20;99.90;;;;;;4996651;28;20675;-86
2023/08/28 02:09:50;;;;;;;4.65;2.42;;;13.20;99.90;;;;;;4996721;28;20614;-86
2023/08/28 02:12:15;;;;;;;5.07;2.70;;;13.20;99.90;;;;;;4996721;28;20176;-86
2023/08/28 02:14:41;;;;;;;6.72;3.08;;;13.20;99.90;;;;;;4996511;28;20179;-86
2023/08/28 02:17:07;;;;;;;3.67;2.67;;;13.20;99.90;;;;;;5000329;28;20514;-84
2023/08/28 02:19:34;;;;;;;5.07;3.13;;;13.10;99.90;;;;;;5000389;28;20185;-87
2023/08/28 02:21:59;;;;;;;4.85;3.05;;;13.10;99.90;;;;;;5000656;28;20219;-87
2023/08/28 02:24:26;;;;;;;4.07;3.03;;;13.10;99.90;;;;;;5018100;28;20250;-88
2023/08/28 02:26:51;;;;;;;3.42;3.08;;;13.20;99.90;;;;;;5017906;28;20171;-88
2023/08/28 02:29:18;;;;;;;5.78;2.85;;;13.20;99.90;;;;;;5028535;28;20186;-87
2023/08/28 02:31:44;;;;;;;3.85;3.03;;;13.20;99.90;;;;;;5037540;28;20167;-85
2023/08/28 02:34:09;;;;;;;4.75;3.33;;;13.20;99.90;;;;;;5019758;28;20178;-86
2023/08/28 02:36:35;;;;;;;7.30;3.30;;;13.10;99.90;;;;;;5019838;28;20232;-87
2023/08/28 02:39:01;;;;;;;4.50;3.28;;;13.10;99.90;;;;;;5020016;28;20613;-88
2023/08/28 02:41:27;;;;;;;5.13;3.35;;;13.10;99.90;;;;;;5019648;28;20640;-87
2023/08/28 02:43:52;;;;;;;3.33;2.88;;;13.10;99.90;;;;;;5019596;28;20167;-87
2023/08/28 02:46:18;;;;;;;4.18;2.92;;;13.00;99.90;;;;;;5037477;28;20561;-87
2023/08/28 02:48:44;;;;;;;3.55;3.13;;;13.00;99.90;;;;;;5019617;28;20178;-85
2023/08/28 02:51:10;;;;;;;4.70;3.53;;;13.10;99.90;;;;;;5019665;28;20187;-87
2023/08/28 02:53:35;;;;;;;3.20;2.70;;;13.00;99.90;;;;;;5037339;28;20225;-87
2023/08/28 02:56:20;;;;;;;4.55;3.35;;;13.00;99.90;;;;;;5019956;28;20265;-87
2023/08/28 02:58:46;;;;;;;8.68;3.40;;;12.90;99.90;;;;;;5036574;28;20714;-86
2023/08/28 03:01:13;;;;;;;5.68;3.90;;;12.90;99.90;;;;;;5037228;28;20206;-88
2023/08/28 03:03:39;;;;;;;5.70;3.53;;;12.80;99.90;;;;;;5019499;28;20170;-88
2023/08/28 03:06:05;;;;;;;4.47;3.63;;;12.80;99.90;;;;;;5019681;28;20179;-89
2023/08/28 03:08:30;;;;;;;6.45;4.07;;;12.80;99.90;;;;;;5019585;28;20179;-90
2023/08/28 03:10:57;;;;;;;5.07;3.63;;;12.80;99.90;;;;;;5019646;28;20182;-88
2023/08/28 03:13:23;;;;;;;7.05;4.00;;;12.70;99.90;;;;;;5019136;28;20175;-88
2023/08/28 03:15:48;;;;;;;7.68;4.03;;;12.70;99.90;;;;;;5019436;28;20270;-86
2023/08/28 03:18:14;;;;;;;4.82;3.95;;;12.80;99.90;;;;;;5019320;28;20671;-88
2023/08/28 03:20:42;;;;;;;5.22;3.70;;;12.80;99.90;;;;;;5019340;28;20210;-91
2023/08/28 03:23:09;;;;;;;7.45;4.10;;;12.80;99.90;;;;;;5019391;28;20520;-88
2023/08/28 03:25:38;;;;;;;4.43;3.63;;;12.80;99.90;;;;;;5019167;28;20225;-89
2023/08/28 03:28:07;;;;;;;7.40;3.80;;;12.70;99.90;;;;;;5018928;28;20732;-86
2023/08/28 03:30:33;;;;;;;5.28;4.38;;;12.70;99.90;;;;;;5019044;28;20564;-92
2023/08/28 03:32:59;;;;;;;5.70;4.43;;;12.50;99.90;;;;;;5037157;28;20636;-90
2023/08/28 03:35:25;;;;;;;9.10;4.57;;;12.50;99.90;;;;;;5019122;28;20225;-86
2023/08/28 03:37:51;;;;;;;5.68;3.90;;;12.40;99.90;;;;;;5018778;28;20175;-87
2023/08/28 03:40:17;;;;;;;6.28;4.80;;;12.30;99.90;;;;;;5019020;28;20218;-90
2023/08/28 03:42:42;;;;;;;5.70;4.40;;;12.30;99.90;;;;;;5019266;28;20185;-91
2023/08/28 03:45:08;;;;;;;4.85;4.30;;;12.20;99.90;;;;;;5036607;28;20173;-93
2023/08/28 03:47:34;;;;;;;8.65;4.72;;;12.30;99.90;;;;;;5036750;28;20513;-91
2023/08/28 03:50:01;;;;;;;5.93;4.78;;;12.30;99.90;;;;;;5019188;28;20206;-89
2023/08/28 03:52:27;;;;;;;5.30;4.80;;;12.30;99.90;;;;;;5036267;28;20167;-86
2023/08/28 03:54:52;;;;;;;5.43;4.35;;;12.30;99.90;;;;;;5018205;28;20675;-85
2023/08/28 03:57:19;;;;;;;5.20;4.45;;;12.30;99.90;;;;;;5018279;28;20228;-85
2023/08/28 03:59:45;;;;;;;7.30;4.63;;;12.30;99.90;;;;;;5017598;28;20669;-86
2023/08/28 04:02:11;;;;;;;5.25;4.70;;;12.40;99.90;;;;;;5018198;28;20314;-89
2023/08/28 04:04:37;;;;;;;6.13;5.03;;;12.40;99.90;;;;;;5018210;28;20587;-87
2023/08/28 04:07:03;;;;;;;5.85;4.90;;;12.40;99.90;;;;;;5018002;28;20204;-86
2023/08/28 04:09:29;;;;;;;5.60;5.10;;;12.40;99.90;;;;;;5018256;28;20289;-87
2023/08/28 04:12:02;;;;;;;6.47;5.05;;;12.40;99.90;;;;;;5035760;28;20510;-87
2023/08/28 04:14:28;;;;;;;7.28;4.82;;;12.40;99.90;;;;;;5035587;28;20159;-86
2023/08/28 04:16:54;;;;;;;6.70;4.50;;;12.40;99.90;;;;;;5035726;28;20254;-87
2023/08/28 04:19:19;;;;;;;6.07;4.82;;;12.50;99.90;;;;;;5018117;28;20289;-87
2023/08/28 04:21:45;;;;;;;6.32;5.18;;;12.40;99.90;;;;;;5035445;28;20207;-86
2023/08/28 04:24:11;;;;;;;5.82;5.00;;;12.40;99.90;;;;;;5017852;28;20219;-89
2023/08/28 04:26:37;;;;;;;9.73;5.43;;;12.30;99.90;;;;;;5017860;28;20186;-89
2023/08/28 04:29:02;;;;;;;10.52;5.65;;;12.20;99.90;;;;;;5017423;28;20193;-86
2023/08/28 04:31:30;;;;;;;7.72;5.50;;;12.20;99.90;;;;;;5017597;28;20208;-87
2023/08/28 04:33:55;;;;;;;6.30;5.40;;;12.10;99.90;;;;;;5017601;28;20171;-86
2023/08/28 04:36:21;;;;;;;7.35;5.25;;;12.10;99.90;;;;;;5017536;28;20185;-87
2023/08/28 04:38:47;;;;;;;7.80;5.35;;;12.10;99.90;;;;;;5034552;28;20174;-89
2023/08/28 04:41:13;;;;;;;7.00;5.55;;;12.10;99.90;;;;;;5016854;28;20684;-86
2023/08/28 04:43:38;;;;;;;7.10;5.55;;;12.10;99.90;;;;;;5017004;28;20586;-84
2023/08/28 04:46:05;;;;;;;8.45;6.18;;;12.00;99.90;;;;;;5017271;28;20183;-86
2023/08/28 04:48:30;;;;;;;8.77;6.47;;;12.10;99.90;;;;;;5016950;28;20202;-90
2023/08/28 04:50:56;;;;;;;6.93;5.93;;;12.10;99.90;;;;;;5034747;28;20235;-89
2023/08/28 04:53:22;;;;;;;6.82;5.90;;;12.10;99.90;;;;;;4979658;28;20183;-87
2023/08/28 04:55:48;;;;;;;9.13;6.45;;;12.10;99.90;;;;;;4978271;28;20180;-86
2023/08/28 04:58:13;;;;;;;8.98;6.90;;;12.20;99.90;;;;;;4982115;28;20262;-90
2023/08/28 05:00:39;;;;;;;9.57;6.65;;;12.20;99.90;;;;;;5016670;28;20225;-86
2023/08/28 05:03:05;;;;;;;12.38;6.20;;;12.20;99.90;;;;;;5017143;28;20175;-86
2023/08/28 05:05:31;;;;;;;8.88;6.68;;;12.20;99.90;;;;;;5017103;28;20585;-87
2023/08/28 05:07:57;;;;;;;8.38;6.53;;;12.30;99.90;;;;;;5034518;28;20262;-85
2023/08/28 05:10:24;;;;;;;8.20;5.75;;;12.30;99.90;;;;;;5016955;28;20531;-86
2023/08/28 05:12:50;;;;;;;6.72;5.25;;;12.30;99.90;;;;;;5016769;28;20242;-87
2023/08/28 05:15:16;;;;;;;6.25;5.65;;;12.30;99.90;;;;;;5016709;28;20270;-89
2023/08/28 05:17:41;;;;;;;7.05;6.10;;;12.30;99.90;;;;;;5016594;28;20522;-86
2023/08/28 05:20:07;;;;;;;7.85;6.50;;;12.30;99.90;;;;;;5016563;28;20261;-86
2023/08/28 05:22:33;;;;;;;6.57;5.70;;;12.30;99.90;;;;;;5016529;28;20187;-86
2023/08/28 05:24:59;;;;;;;10.60;6.60;;;12.30;99.90;;;;;;5016205;28;20182;-87
2023/08/28 05:27:24;;;;;;;8.18;6.38;;;12.40;99.90;;;;;;5016173;28;20186;-86
2023/08/28 05:29:52;;;;;;;8.20;6.78;;;12.40;99.90;;;;;;5016082;28;20186;-86
2023/08/28 05:32:17;;;;;;;9.05;6.57;;;12.50;99.90;;;;;;5016682;28;20236;-87
2023/08/28 05:34:43;;;;;;;8.30;6.78;;;12.50;99.90;;;;;;5016750;28;20167;-87
2023/08/28 05:37:09;;;;;;;8.20;6.55;;;12.70;99.90;;;;;;5016458;28;20182;-86
2023/08/28 05:39:35;;;;;;;10.20;7.18;;;12.70;99.90;;;;;;5016848;28;20174;-85
2023/08/28 05:42:00;;;;;;;10.18;6.93;;;12.70;99.90;;;;;;5016381;28;20260;-86
2023/08/28 05:44:26;;;;;;;9.32;7.43;;;12.80;99.90;;;;;;5016411;28;20206;-91
2023/08/28 05:46:52;;;;;;;11.10;7.57;;;12.80;99.90;;;;;;5016573;28;20178;-87
2023/08/28 05:49:17;;;;;;;9.88;7.70;;;12.90;99.90;;;;;;5017456;28;20182;-87
2023/08/28 05:51:43;;;;;;;10.05;7.75;;;12.90;99.90;;;;;;5020544;28;20182;-87
2023/08/28 05:54:09;;;;;;;9.68;8.10;;;13.00;99.90;;;;;;5038400;28;20663;-85
2023/08/28 05:56:35;;;;;;;9.25;7.80;;;13.00;99.90;;;;;;5038288;28;20173;-86
2023/08/28 05:59:00;;;;;;;9.50;8.27;;;13.10;99.90;;;;;;5011326;28;20231;-87
2023/08/28 06:01:27;;;;;;;9.10;8.02;;;13.20;99.90;;;;;;5000549;28;20524;-90
2023/08/28 06:03:56;;;;;;;10.43;8.20;;;13.30;99.90;;;;;;5000641;28;20183;-87
2023/08/28 06:06:23;;;;;;;11.05;8.65;;;13.40;99.90;;;;;;5000641;28;20183;-88
2023/08/28 06:08:49;;;;;;;10.60;8.20;;;13.50;99.90;;;;;;5000672;28;20175;-87
2023/08/28 06:11:14;;;;;;;9.90;8.00;;;13.60;99.90;;;;;;5000564;28;20517;-87
2023/08/28 06:13:40;;;;;;;8.32;7.25;;;13.70;99.90;;;;;;5000699;28;20172;-86
2023/08/28 06:16:06;;;;;;;10.20;7.20;;;13.80;99.90;;;;;;5000084;28;20222;-89
2023/08/28 06:18:32;;;;;;;8.20;7.20;;;13.90;99.90;;;;;;5000308;28;20171;-87
2023/08/28 06:20:58;;;;;;;9.82;7.40;;;14.20;99.90;;;;;;5000474;28;20594;-87
2023/08/28 06:23:24;;;;;;;10.32;7.43;;;14.30;99.90;;;;;;5000381;28;20171;-87
2023/08/28 06:25:49;;;;;;;11.18;6.70;;;14.30;99.90;;;;;;5000479;28;20236;-87
2023/08/28 06:28:15;;;;;;;8.32;7.30;;;14.50;99.90;;;;;;5002972;28;20171;-90
2023/08/28 06:30:41;;;;;;;9.10;6.78;;;14.50;99.90;;;;;;5020412;28;20179;-91
2023/08/28 06:33:07;;;;;;;8.88;6.63;;;14.60;99.90;;;;;;5020286;28;20244;-91
2023/08/28 06:35:33;;;;;;;8.98;7.15;;;14.70;99.90;;;;;;5020239;28;20621;-90
2023/08/28 06:37:59;;;;;;;8.77;6.63;;;14.70;99.90;;;;;;5020061;28;20174;-92
2023/08/28 06:40:24;;;;;;;8.15;7.35;;;14.80;99.90;;;;;;5019740;28;20210;-86
2023/08/28 06:42:51;;;;;;;11.38;7.00;;;14.80;99.90;;;;;;5019688;28;20282;-88
2023/08/28 06:45:17;;;;;;;7.13;6.30;;;14.90;99.90;;;;;;5019566;28;20171;-87
2023/08/28 06:47:42;;;;;;;7.47;6.68;;;14.90;99.90;;;;;;5019870;28;20191;-88
2023/08/28 06:50:09;;;;;;;6.63;6.03;;;15.10;99.90;;;;;;5037623;28;20197;-89
2023/08/28 06:52:36;;;;;;;8.75;6.40;;;15.10;99.90;;;;;;5020130;28;20183;-88
2023/08/28 06:55:02;;;;;;;9.45;6.20;;;15.20;99.90;;;;;;5019607;28;20704;-88
2023/08/28 06:57:28;;;;;;;12.07;6.03;;;15.30;99.90;;;;;;5019504;28;20529;-86
2023/08/28 06:59:54;;;;;;;8.63;5.03;;;15.40;99.90;;;;;;5019356;28;20226;-87
2023/08/28 07:02:20;;;;;;;8.02;4.95;;;15.40;99.90;;;;;;5019047;28;20222;-91
2023/08/28 07:04:46;;;;;;;8.95;5.18;;;15.40;99.90;;;;;;5019679;28;20175;-89
2023/08/28 07:07:16;;;;;;;9.00;5.22;;;15.50;99.90;;;;;;5019662;28;20555;-90
2023/08/28 07:09:42;;;;;;;5.43;4.22;;;15.70;99.90;;;;;;5019350;28;20167;-91
2023/08/28 07:12:08;;;;;;;6.85;4.90;;;15.80;99.90;;;;;;5019254;28;20179;-93
2023/08/28 07:14:34;;;;;;;9.98;4.68;;;15.90;99.90;;;;;;5018928;28;20234;-88
2023/08/28 07:17:01;;;;;;;6.13;4.53;;;16.00;99.90;;;;;;5019177;28;20276;-91
2023/08/28 07:19:27;;;;;;;5.40;3.97;;;16.00;99.90;;;;;;5019232;28;20516;-92
2023/08/28 07:22:01;;;;;;;6.43;4.15;;;16.10;99.90;;;;;;5019257;28;20210;-93
2023/08/28 07:24:27;;;;;;;6.35;4.50;;;16.10;99.90;;;;;;5019045;28;20274;-89
2023/08/28 07:26:53;;;;;;;5.20;4.25;;;16.20;99.90;;;;;;5036721;28;20245;-91
2023/08/28 07:29:18;;;;;;;4.20;3.80;;;16.20;99.90;;;;;;5018577;28;20617;-88
2023/08/28 07:31:45;;;;;;;5.03;3.42;;;16.20;99.90;;;;;;5019026;28;20178;-86
2023/08/28 07:34:11;;;;;;;5.93;3.63;;;16.20;99.90;;;;;;5018851;28;20179;-86
2023/08/28 07:36:37;;;;;;;6.53;4.35;;;16.20;99.90;;;;;;5018607;28;20185;-86
2023/08/28 07:39:04;;;;;;;5.55;3.35;;;16.20;99.90;;;;;;5018915;28;20175;-84
2023/08/28 07:41:31;;;;;;;6.03;3.63;;;16.20;99.90;;;;;;5018216;28;20226;-86
2023/08/28 07:43:56;;;;;;;7.57;3.40;;;16.20;99.90;;;;;;5018910;28;20175;-87
2023/08/28 07:46:22;;;;;;;4.60;3.10;;;16.30;99.90;;;;;;5036495;28;20265;-91
2023/08/28 07:48:48;;;;;;;4.85;3.17;;;16.40;99.90;;;;;;5018427;28;20183;-89
2023/08/28 07:51:13;;;;;;;5.97;2.92;;;16.50;99.90;;;;;;5018325;28;20187;-86
2023/08/28 07:53:39;;;;;;;4.75;2.20;;;16.60;99.90;;;;;;5018918;28;20191;-88
2023/08/28 07:56:06;;;;;;;3.83;2.42;;;16.60;99.90;;;;;;5018134;28;20277;-90
2023/08/28 07:58:33;;;;;;;3.97;2.50;;;16.70;99.90;;;;;;5013611;28;20235;-88
2023/08/28 08:00:59;;;;;;;2.72;2.10;;;16.70;99.90;;;;;;5015671;28;20215;-88
2023/08/28 08:03:27;;;;;;;4.50;2.20;;;16.70;99.90;;;;;;4998740;28;20175;-88
2023/08/28 08:05:54;;;;;;;4.32;2.20;;;16.80;99.90;;;;;;4998674;28;20210;-86
2023/08/28 08:08:20;;;;;;;3.05;2.15;;;16.80;99.90;;;;;;4998273;28;20179;-88
2023/08/28 08:10:45;;;;;;;6.07;2.17;;;16.90;99.90;;;;;;5015442;28;20246;-88
2023/08/28 08:13:11;;;;;;;3.10;2.10;;;17.00;99.90;;;;;;4997457;28;20668;-89
2023/08/28 08:15:37;;;;;;;2.78;1.77;;;17.00;99.90;;;;;;4998759;28;20168;-89
2023/08/28 08:18:03;;;;;;;5.93;2.38;;;17.00;99.90;;;;;;5035631;28;20197;-90
2023/08/28 08:20:30;;;;;;;4.03;2.17;;;17.00;99.90;;;;;;5017949;28;20297;-88
2023/08/28 08:22:56;;;;;;;1.95;1.40;;;17.00;99.90;;;;;;5035585;28;20170;-87
2023/08/28 08:25:22;;;;;;;4.63;1.92;;;17.20;99.90;;;;;;5017907;28;20171;-86
2023/08/28 08:27:48;;;;;;;2.20;1.50;;;17.40;99.90;;;;;;5017707;28;20973;-87
2023/08/28 08:30:14;;;;;;;6.43;2.10;;;17.50;99.90;;;;;;5017696;28;20181;-88
2023/08/28 08:32:39;;;;;;;3.85;1.80;;;17.50;99.90;;;;;;5035026;28;20175;-88
2023/08/28 08:35:06;;;;;;;2.55;1.70;;;17.50;99.90;;;;;;5017578;28;20256;-87
2023/08/28 08:37:32;;;;;;;4.28;1.52;;;17.50;99.90;;;;;;5017672;28;20629;-88
2023/08/28 08:39:58;;;;;;;3.63;1.33;;;17.70;99.90;;;;;;5017738;28;20178;-88
2023/08/28 08:42:25;;;;;;;2.85;1.15;;;17.70;99.90;;;;;;5017634;28;20225;-87
2023/08/28 08:44:51;;;;;;;3.75;1.15;;;17.80;99.90;;;;;;5017822;28;20171;-90
2023/08/28 08:47:17;;;;;;;3.70;1.17;;;17.70;99.90;;;;;;5017315;28;20196;-88
2023/08/28 08:49:52;;;;;;;5.05;1.25;;;17.80;99.90;;;;;;5017189;28;20188;-87
2023/08/28 08:52:20;;;;;;;3.58;1.20;;;17.80;99.90;;;;;;5017744;28;20189;-88
2023/08/28 08:54:52;;;;;;;3.00;1.10;;;17.70;99.90;;;;;;5017662;28;20198;-87
2023/08/28 08:57:42;;;;;;;2.55;1.02;;;17.60;99.90;;;;;;5017546;28;20182;-91
2023/08/28 09:00:13;;;;;;;2.67;1.05;;;17.60;99.90;;;;;;5017240;28;20260;-90
2023/08/28 09:02:41;;;;;;;1.42;0.82;;;17.50;99.90;;;;;;5017245;28;20179;-90
2023/08/28 09:05:09;;;;;;;2.17;1.10;;;17.60;99.90;;;;;;5017577;28;20597;-90
2023/08/28 09:07:37;;;;;;;3.72;1.05;;;17.60;99.90;;;;;;5017389;28;20265;-88
2023/08/28 09:10:04;;;;;;;4.72;1.00;;;17.70;99.90;;;;;;5016323;28;20182;-88
2023/08/28 09:12:30;;;;;;;6.30;1.20;;;17.80;99.90;;;;;;5034550;28;20179;-89
2023/08/28 09:14:57;;;;;;;4.82;1.27;;;17.70;99.90;;;;;;5034886;28;20246;-92
2023/08/28 09:17:26;;;;;;;3.13;1.35;;;17.70;99.90;;;;;;5000882;28;20191;-91
2023/08/28 09:19:53;;;;;;;3.53;1.20;;;17.70;99.90;;;;;;4997384;28;20202;-87
2023/08/28 09:22:25;;;;;;;1.40;0.82;;;17.60;99.90;;;;;;5013904;28;20680;-90
2023/08/28 09:24:55;;;;;;;2.65;1.15;;;17.50;99.90;;;;;;4997579;28;20179;-92
2023/08/28 09:27:21;;;;;;;4.65;1.17;;;17.50;99.90;;;;;;5015066;28;20519;-87
2023/08/28 09:29:46;;;;;;;2.25;1.00;;;17.50;99.90;;;;;;4997208;28;20176;-88
2023/08/28 09:32:26;;;;;;;2.60;1.08;;;17.50;99.90;;;;;;5014687;28;20900;-91
2023/08/28 09:34:52;;;;;;;2.92;1.08;;;17.50;99.90;;;;;;5013848;28;20539;-89
2023/08/28 09:37:20;;;;;;;3.20;1.15;;;17.60;99.90;;;;;;5015160;28;20175;-90
2023/08/28 09:39:56;;;;;;;6.05;1.10;;;17.70;99.90;;;;;;4997135;28;20202;-93
2023/08/28 09:42:25;;;;;;;2.70;1.15;;;17.70;99.90;;;;;;4996451;28;20206;-88
2023/08/28 09:44:51;;;;;;;3.10;1.00;;;17.80;99.90;;;;;;4996624;28;20175;-89
2023/08/28 09:47:23;;;;;;;3.88;1.00;;;17.80;99.90;;;;;;5028353;28;20225;-86
2023/08/28 09:49:50;;;;;;;3.25;1.10;;;17.90;99.90;;;;;;5016130;28;20274;-88
2023/08/28 09:52:24;;;;;;;2.33;1.00;;;18.00;99.90;;;;;;5016110;28;20205;-87
2023/08/28 09:55:16;;;;;;;7.32;1.23;;;18.10;99.90;;;;;;5016580;28;20174;-87
2023/08/28 09:57:45;;;;;;;3.28;1.00;;;18.20;99.90;;;;;;5013291;28;20193;-87
2023/08/28 10:00:12;;;;;;;2.15;1.05;;;18.30;99.90;;;;;;5033943;28;20208;-88
2023/08/28 10:02:39;;;;;;;1.63;0.90;;;18.30;99.90;;;;;;5033696;28;20185;-87
2023/08/28 10:05:10;;;;;;;4.78;1.20;;;18.40;99.90;;;;;;5016488;28;20572;-88
2023/08/28 10:07:39;;;;;;;3.33;1.20;;;18.40;99.90;;;;;;5015877;28;20170;-87
2023/08/28 10:10:10;;;;;;;3.25;1.00;;;18.50;99.90;;;;;;5015588;28;20232;-86
2023/08/28 10:12:36;;;;;;;2.90;0.77;;;18.50;99.90;;;;;;5016106;28;20316;-87
2023/08/28 10:15:04;;;;;;;1.25;0.75;;;18.50;99.90;;;;;;5016294;28;20178;-87
2023/08/28 10:17:32;;;;;;;3.45;0.80;;;18.50;99.90;;;;;;5033304;28;20198;-87
2023/08/28 10:20:00;;;;;;;2.80;0.98;;;18.50;99.90;;;;;;5015990;28;20613;-86
2023/08/28 10:22:35;;;;;;;5.88;0.95;;;18.50;99.90;;;;;;5015903;28;20211;-87
2023/08/28 10:25:02;;;;;;;5.32;1.35;;;18.50;99.90;;;;;;5033936;28;20216;-86
2023/08/28 10:27:28;;;;;;;3.25;0.90;;;18.50;99.90;;;;;;5015819;28;20625;-86
2023/08/28 10:29:54;;;;;;;2.75;1.10;;;18.60;99.90;;;;;;5016048;28;20254;-87
2023/08/28 10:32:22;;;;;;;2.63;0.98;;;18.50;99.90;;;;;;5015634;28;20174;-86
2023/08/28 10:34:51;;;;;;;1.73;0.90;;;18.60;99.90;;;;;;5016076;28;20182;-88
2023/08/28 10:37:18;;;;;;;4.30;0.73;;;18.70;99.90;;;;;;5018387;28;20269;-87
2023/08/28 10:39:44;;;;;;;2.10;0.95;;;18.80;99.90;;;;;;5019448;28;20178;-88
2023/08/28 10:42:12;;;;;;;2.00;0.60;;;18.80;99.90;;;;;;5019760;28;20234;-88
2023/08/28 10:44:40;;;;;;;3.47;0.93;;;18.80;99.90;;;;;;5019473;28;20551;-86
2023/08/28 10:47:06;;;;;;;1.70;0.70;;;18.70;99.90;;;;;;5036825;28;20182;-86
2023/08/28 10:49:35;;;;;;;4.07;0.60;;;18.70;99.90;;;;;;5037103;28;20551;-86
2023/08/28 10:52:10;;;;;;;1.30;0.47;;;18.70;99.90;;;;;;5019190;28;20182;-87
2023/08/28 10:54:42;;;;;;;2.03;0.65;;;18.90;99.90;;;;;;5037259;28;20158;-85
2023/08/28 10:57:21;;;;;;;2.95;0.93;;;19.10;99.90;;;;;;5019420;28;20613;-86
2023/08/28 10:59:49;;;;;;;2.10;0.73;;;19.10;99.90;;;;;;5018943;28;20229;-87
2023/08/28 11:02:15;;;;;;;2.88;0.77;;;19.20;99.90;;;;;;5018830;28;20224;-86
2023/08/28 11:04:41;;;;;;;3.22;0.60;;;19.30;99.90;;;;;;5019097;28;20179;-87
2023/08/28 11:07:30;;;;;;;4.93;0.88;;;19.40;99.90;;;;;;5019473;28;20233;-87
2023/08/28 11:10:25;;;;;;;1.88;0.88;;;19.60;99.90;;;;;;5018552;28;20201;-86
2023/08/28 11:12:56;;;;;;;3.08;0.77;;;19.60;99.90;;;;;;5019056;28;20271;-86
2023/08/28 11:15:30;;;;;;;2.13;0.60;;;19.50;99.90;;;;;;5019105;28;20171;-87
2023/08/28 11:18:23;;;;;;;1.88;0.60;;;19.50;99.90;;;;;;5018491;28;20182;-86
2023/08/28 11:20:53;;;;;;;3.45;0.75;;;19.60;99.90;;;;;;5018772;28;20206;-89
2023/08/28 11:23:34;;;;;;;3.25;0.70;;;19.60;99.90;;;;;;5018521;28;20676;-86
2023/08/28 11:26:06;;;;;;;1.13;0.55;;;19.60;99.90;;;;;;5036467;28;20162;-87
2023/08/28 11:28:45;;;;;;;0.82;0.47;;;19.90;99.90;;;;;;5018570;28;20178;-87
2023/08/28 11:31:11;;;;;;;1.42;0.75;;;19.90;99.90;;;;;;5018613;28;20189;-87
2023/08/28 11:33:41;;;;;;;3.70;0.90;;;19.90;99.90;;;;;;5036236;28;20667;-86
2023/08/28 11:36:08;;;;;;;1.38;0.52;;;19.90;99.90;;;;;;5018653;28;20535;-86
2023/08/28 11:38:35;;;;;;;2.67;0.70;;;19.90;99.90;;;;;;5018433;28;20178;-88
2023/08/28 11:41:08;;;;;;;1.27;0.50;;;20.00;99.90;;;;;;5018383;28;20225;-87
2023/08/28 11:43:40;;;;;;;2.30;0.60;;;20.00;99.90;;;;;;5036299;28;20650;-88
2023/08/28 11:46:06;;;;;;;3.05;0.60;;;19.80;99.90;;;;;;5018565;28;20186;-88
2023/08/28 11:48:37;;;;;;;1.40;0.68;;;19.60;99.90;;;;;;5017944;28;20189;-87
2023/08/28 11:51:05;;;;;;;3.75;0.85;;;19.50;99.90;;;;;;5018287;28;20212;-86
2023/08/28 11:53:41;;;;;;;1.60;0.70;;;19.50;99.90;;;;;;5018216;28;20181;-88
2023/08/28 11:56:09;;;;;;;0.65;0.50;;;19.50;99.90;;;;;;5018388;28;20609;-87
2023/08/28 11:58:37;;;;;;;1.27;0.57;;;19.50;99.90;;;;;;5018070;28;20222;-87
2023/08/28 12:01:08;;;;;;;2.28;0.60;;;19.30;99.90;;;;;;5017938;28;20301;-88
2023/08/28 12:03:38;;;;;;;1.05;0.50;;;19.20;99.90;;;;;;5017406;28;20179;-87
2023/08/28 12:06:07;;;;;;;1.90;0.77;;;19.20;99.90;;;;;;5017917;28;20605;-87
2023/08/28 12:08:44;;;;;;;1.25;0.55;;;19.30;99.90;;;;;;5018016;28;20178;-86
2023/08/28 12:11:14;;;;;;;1.23;0.60;;;19.20;99.90;;;;;;5017694;28;20703;-86
2023/08/28 12:13:40;;;;;;;2.60;0.85;;;19.10;99.90;;;;;;5018032;28;20601;-89
2023/08/28 12:16:17;;;;;;;1.00;0.38;;;19.10;99.90;;;;;;5017875;28;20209;-86
2023/08/28 12:18:53;;;;;;;1.75;0.63;;;18.90;99.90;;;;;;5017710;28;20171;-87
2023/08/28 12:21:34;;;;;;;2.35;0.60;;;18.80;99.90;;;;;;5017621;28;20202;-86
2023/08/28 12:24:00;;;;;;;2.17;0.50;;;18.90;99.90;;;;;;5017655;28;20175;-86
2023/08/28 12:26:26;;;;;;;1.30;0.60;;;19.10;99.90;;;;;;5035050;28;20241;-87
2023/08/28 12:28:52;;;;;;;2.97;0.50;;;19.30;99.90;;;;;;5035144;28;20256;-86
2023/08/28 12:31:30;;;;;;;1.67;0.60;;;19.60;99.90;;;;;;5017424;28;20181;-88
2023/08/28 12:33:56;;;;;;;1.55;0.45;;;19.90;99.90;;;;;;5017447;28;20174;-88
2023/08/28 12:36:39;;;;;;;1.70;0.60;;;20.10;99.90;;;;;;5017509;28;20170;-86
2023/08/28 12:39:07;;;;;;;1.92;0.60;;;20.40;99.90;;;;;;5034930;28;20633;-87
2023/08/28 12:41:47;;;;;;;2.33;0.60;;;20.50;99.90;;;;;;5017148;28;20211;-87
2023/08/28 12:44:14;;;;;;;1.48;0.52;;;20.60;99.90;;;;;;5017632;28;20202;-89
2023/08/28 12:46:40;;;;;;;2.38;0.60;;;20.80;99.90;;;;;;5017122;28;20182;-89
2023/08/28 12:49:05;;;;;;;1.25;0.63;;;20.70;99.90;;;;;;5016943;28;20672;-90
2023/08/28 12:51:31;;;;;;;0.95;0.50;;;20.70;99.90;;;;;;5017356;28;20515;-88